Time;durP1;ratioP1;P1;durP2;ratioP2;P2;SDS_P1;SDS_P2;PMS_P1;PMS_P2;Temp;Humidity;BMP_temperature;BMP_pressure;BME280_temperature;BME280_humidity;BME280_pressure;Samples;Min_cycle;Max_cycle;Signal;HPM_P1;HPM_P2
2023/02/16 00:01:21;;;;;;;49.13;26.35;;;2.20;99.90;;;0.86;100.00;98337.50;5073484;28;20407;-78
2023/02/16 00:03:48;;;;;;;51.13;25.73;;;2.20;99.90;;;0.83;100.00;98328.19;5072478;28;20396;-78
2023/02/16 00:06:15;;;;;;;49.67;26.08;;;2.20;99.90;;;0.83;100.00;98333.41;5073637;28;20884;-78
2023/02/16 00:08:45;;;;;;;47.88;24.60;;;2.10;99.90;;;0.81;100.00;98332.78;5073704;28;20438;-78
2023/02/16 00:14:07;;;;;;;52.33;24.65;;;2.10;99.90;;;0.75;100.00;98331.63;5071822;28;20903;-79
2023/02/16 00:16:34;;;;;;;46.63;24.85;;;2.10;99.90;;;0.72;100.00;98334.59;5072925;28;20955;-78
2023/02/16 00:19:00;;;;;;;48.65;24.20;;;2.00;99.90;;;0.70;100.00;98336.53;5070114;28;20414;-79
2023/02/16 00:21:26;;;;;;;48.58;24.58;;;2.10;99.90;;;0.69;100.00;98344.53;5068259;28;20434;-78
2023/02/16 00:23:53;;;;;;;52.70;25.15;;;2.00;99.90;;;0.69;100.00;98347.94;5073378;28;20743;-78
2023/02/16 00:26:21;;;;;;;55.67;27.42;;;2.00;99.90;;;0.60;100.00;98338.50;5070959;28;20410;-78
2023/02/16 00:28:50;;;;;;;51.25;25.23;;;2.00;99.90;;;0.57;100.00;98344.06;5073019;28;20403;-79
2023/02/16 00:31:19;;;;;;;52.17;26.90;;;1.90;99.90;;;0.50;100.00;98344.88;5067717;28;20396;-79
2023/02/16 00:33:47;;;;;;;60.40;28.42;;;1.90;99.90;;;0.52;100.00;98341.13;5069655;28;20398;-78
2023/02/16 00:36:13;;;;;;;56.53;28.30;;;1.80;99.90;;;0.54;100.00;98341.75;5072994;28;20403;-78
2023/02/16 00:38:39;;;;;;;59.72;29.67;;;1.80;99.90;;;0.54;100.00;98346.97;5072916;28;20415;-78
2023/02/16 00:41:49;;;;;;;60.70;29.67;;;1.80;99.90;;;0.54;100.00;98346.16;5072801;28;20399;-78
2023/02/16 00:44:02;;;;;;;50.30;26.45;;;1.90;99.90;;;0.55;100.00;98346.00;5070686;28;20410;-79
2023/02/16 00:46:28;;;;;;;57.95;27.67;;;1.90;99.90;;;0.54;100.00;98344.38;5072871;28;20733;-79
2023/02/16 00:48:54;;;;;;;55.08;28.48;;;1.90;99.90;;;0.54;100.00;98340.94;5054634;28;20515;-79
2023/02/16 00:51:20;;;;;;;61.83;31.00;;;1.90;99.90;;;0.52;100.00;98345.53;5072519;28;20491;-79
2023/02/16 00:53:45;;;;;;;64.90;32.38;;;1.80;99.90;;;0.54;100.00;98338.34;5072499;28;20396;-79
2023/02/16 00:56:19;;;;;;;62.40;29.90;;;1.90;99.90;;;0.52;100.00;98338.53;5072781;28;20880;-79
2023/02/16 00:58:46;;;;;;;60.80;30.58;;;1.80;99.90;;;0.49;100.00;98333.66;5054018;28;20799;-79
2023/02/16 01:01:16;;;;;;;61.45;30.25;;;1.80;99.90;;;0.49;100.00;98335.44;5072352;28;20423;-79
2023/02/16 01:03:43;;;;;;;60.53;31.08;;;1.80;99.90;;;0.48;100.00;98337.22;5070225;28;20391;-79
2023/02/16 01:11:51;;;;;;;64.05;30.55;;;1.80;99.90;;;0.47;100.00;98343.41;5070808;28;20945;-79
2023/02/16 01:14:17;;;;;;;60.13;30.92;;;1.80;99.90;;;0.44;100.00;98335.94;5072091;28;20403;-79
2023/02/16 01:16:43;;;;;;;65.05;31.25;;;1.80;99.90;;;0.43;100.00;98338.69;5072120;28;20411;-79
2023/02/16 01:19:10;;;;;;;59.60;29.90;;;1.80;99.90;;;0.44;100.00;98341.13;5072142;28;20412;-79
2023/02/16 01:21:36;;;;;;;59.08;29.30;;;1.80;99.90;;;0.46;100.00;98336.56;5071345;28;20408;-79
2023/02/16 01:24:02;;;;;;;57.70;29.58;;;1.80;99.90;;;0.45;100.00;98344.56;5072033;28;20410;-79
2023/02/16 01:26:31;;;;;;;66.07;31.08;;;1.80;99.90;;;0.42;100.00;98340.47;5072111;28;20403;-79
2023/02/16 01:28:58;;;;;;;62.13;30.60;;;1.80;99.90;;;0.41;100.00;98345.84;5071888;28;20873;-79
2023/02/16 01:31:24;;;;;;;59.03;30.37;;;1.80;99.90;;;0.40;100.00;98339.81;5071558;28;20907;-79
2023/02/16 01:33:50;;;;;;;57.38;29.55;;;1.70;99.90;;;0.41;100.00;98335.44;5071869;28;20408;-78
2023/02/16 01:36:27;;;;;;;56.03;29.42;;;1.70;99.90;;;0.37;100.00;98332.34;5071742;28;20396;-78
2023/02/16 01:38:53;;;;;;;58.77;29.40;;;1.70;99.90;;;0.35;100.00;98332.50;5071728;28;20538;-78
2023/02/16 01:41:28;;;;;;;57.88;29.00;;;1.70;99.90;;;0.33;100.00;98333.66;5071432;28;20940;-78
2023/02/16 01:44:01;;;;;;;55.20;28.92;;;1.70;99.90;;;0.31;100.00;98328.59;5071632;28;20442;-78
2023/02/16 01:46:37;;;;;;;58.53;28.40;;;1.70;99.90;;;0.29;100.00;98320.16;5069722;28;20871;-77
2023/02/16 01:49:04;;;;;;;54.53;27.73;;;1.60;99.90;;;0.26;100.00;98320.47;5069006;28;20400;-78
2023/02/16 01:51:36;;;;;;;55.80;27.77;;;1.60;99.90;;;0.23;100.00;98322.56;5071161;28;20938;-78
2023/02/16 01:54:12;;;;;;;53.38;27.85;;;1.60;99.90;;;0.23;100.00;98319.97;5066353;28;20482;-78
2023/02/16 01:56:45;;;;;;;58.40;28.17;;;1.60;99.90;;;0.23;100.00;98319.97;5071380;28;20454;-78
2023/02/16 01:59:23;;;;;;;51.20;26.15;;;1.50;99.90;;;0.21;100.00;98316.72;5071308;28;20441;-78
2023/02/16 02:01:54;;;;;;;52.15;25.35;;;1.60;99.90;;;0.22;100.00;98305.34;5052922;28;20910;-78
2023/02/16 02:07:21;;;;;;;41.25;23.17;;;1.50;99.90;;;0.20;100.00;98297.69;5071186;28;20386;-78
2023/02/16 02:09:59;;;;;;;43.10;21.77;;;1.60;99.90;;;0.20;100.00;98296.88;5060963;28;20904;-78
2023/02/16 02:12:33;;;;;;;43.37;23.07;;;1.60;99.90;;;0.16;100.00;98296.38;5068425;28;20392;-78
2023/02/16 02:15:00;;;;;;;42.33;22.65;;;1.50;99.90;;;0.18;100.00;98297.03;5053164;28;20845;-78
2023/02/16 02:17:27;;;;;;;40.17;21.43;;;1.50;99.90;;;0.15;100.00;98299.16;5053029;28;20884;-78
2023/02/16 02:20:11;;;;;;;37.65;19.42;;;1.50;99.90;;;0.15;100.00;98306.97;5070431;28;20451;-78
2023/02/16 02:23:32;;;;;;;42.40;21.00;;;1.50;99.90;;;0.05;100.00;98290.69;5069900;28;20412;-78
2023/02/16 02:30:11;;;;;;;36.80;19.60;;;1.30;99.90;;;-0.03;100.00;98300.13;5107673;27;20360;-78
2023/02/16 02:33:04;;;;;;;43.38;22.90;;;1.40;99.90;;;-0.05;100.00;98291.66;5090838;28;20405;-78
2023/02/16 02:35:45;;;;;;;38.47;20.63;;;1.30;99.90;;;-0.03;100.00;98291.50;5095975;28;20530;-78
2023/02/16 02:38:16;;;;;;;41.97;21.20;;;1.30;99.90;;;-0.04;100.00;98288.06;5087291;28;20455;-78
2023/02/16 02:40:56;;;;;;;39.83;21.33;;;1.30;99.90;;;-0.08;100.00;98283.38;5087128;28;20406;-78
2023/02/16 02:43:29;;;;;;;37.13;20.67;;;1.30;99.90;;;-0.10;100.00;98285.31;5086834;28;20438;-78
2023/02/16 02:46:00;;;;;;;32.63;18.77;;;1.30;99.90;;;-0.11;100.00;98278.47;5087144;28;20447;-78
2023/02/16 02:48:30;;;;;;;40.67;21.10;;;1.20;99.90;;;-0.12;100.00;98280.25;5093818;28;20826;-78
2023/02/16 02:53:49;;;;;;;42.83;21.52;;;1.20;99.90;;;-0.15;100.00;98280.56;5095957;28;20390;-77
2023/02/16 03:01:59;;;;;;;44.50;21.40;;;1.20;99.90;;;-0.22;100.00;98278.78;5096854;28;20912;-78
2023/02/16 03:04:30;;;;;;;42.03;21.58;;;1.20;99.90;;;-0.22;100.00;98277.00;5096039;28;20448;-77
2023/02/16 03:06:57;;;;;;;41.35;21.15;;;1.10;99.90;;;-0.22;100.00;98279.59;5096301;28;20466;-78
2023/02/16 03:09:24;;;;;;;41.78;21.52;;;1.10;99.90;;;-0.23;100.00;98280.59;5097898;28;20451;-78
2023/02/16 03:14:43;;;;;;;37.35;20.63;;;1.10;99.90;;;-0.21;100.00;98270.00;5097774;28;20410;-78
2023/02/16 03:31:13;;;;;;;51.72;24.77;;;1.40;99.90;;;0.19;100.00;98271.81;5116113;28;20936;-78
2023/02/16 03:33:39;;;;;;;54.05;24.40;;;1.50;99.90;;;0.25;100.00;98271.16;5115929;27;20423;-78
2023/02/16 03:36:08;;;;;;;51.38;23.80;;;1.50;99.90;;;0.33;100.00;98278.97;5115849;27;20397;-78
2023/02/16 03:38:34;;;;;;;50.28;22.05;;;1.60;99.90;;;0.37;100.00;98275.88;5114389;27;20456;-78
2023/02/16 03:41:01;;;;;;;46.08;21.63;;;1.70;99.90;;;0.43;100.00;98274.41;5103869;28;20419;-78
2023/02/16 03:43:28;;;;;;;43.20;21.42;;;1.70;99.90;;;0.47;100.00;98280.06;5092542;28;20398;-77
2023/02/16 03:45:54;;;;;;;42.17;20.80;;;1.70;99.90;;;0.49;100.00;98284.16;5092744;28;20891;-78
2023/02/16 03:48:20;;;;;;;43.97;20.70;;;1.80;99.90;;;0.52;100.00;98281.22;5099934;28;20933;-78
2023/02/16 03:50:46;;;;;;;45.78;21.15;;;1.80;99.90;;;0.53;100.00;98272.41;5097868;28;20404;-78
2023/02/16 03:53:13;;;;;;;45.13;21.45;;;1.80;99.90;;;0.51;100.00;98284.81;5103839;28;20411;-78
2023/02/16 03:55:42;;;;;;;41.23;20.37;;;1.80;99.90;;;0.50;100.00;98283.19;5104618;28;20433;-79
2023/02/16 03:58:12;;;;;;;43.95;20.85;;;1.80;99.90;;;0.55;100.00;98282.66;5102194;28;20393;-77
2023/02/16 04:00:39;;;;;;;44.00;20.98;;;1.80;99.90;;;0.64;100.00;98281.69;5102187;28;20446;-78
2023/02/16 04:03:07;;;;;;;41.03;20.43;;;1.90;99.90;;;0.73;100.00;98289.31;5103473;28;20755;-77
2023/02/16 04:05:34;;;;;;;40.93;20.20;;;2.00;99.90;;;0.85;100.00;98296.78;5103172;28;20400;-77
2023/02/16 04:08:00;;;;;;;37.20;18.25;;;2.10;99.90;;;0.91;100.00;98298.69;5110457;28;20831;-77
2023/02/16 04:10:27;;;;;;;32.75;17.33;;;2.20;99.90;;;0.94;100.00;98304.41;5103458;28;20403;-78
2023/02/16 04:12:53;;;;;;;31.85;17.48;;;2.20;99.90;;;0.90;100.00;98297.91;5100576;28;20505;-77
2023/02/16 04:15:21;;;;;;;29.37;16.63;;;2.20;99.90;;;0.86;100.00;98301.00;5109348;28;20391;-78
2023/02/16 04:17:48;;;;;;;33.55;18.17;;;2.10;99.90;;;0.77;100.00;98302.81;5103403;28;20435;-77
2023/02/16 04:20:17;;;;;;;34.88;18.25;;;2.10;99.90;;;0.67;100.00;98292.59;5106674;28;20408;-78
2023/02/16 04:22:43;;;;;;;32.67;17.50;;;2.00;99.90;;;0.59;100.00;98305.63;5100805;28;20489;-78
2023/02/16 04:25:09;;;;;;;32.10;17.58;;;1.90;99.90;;;0.50;100.00;98301.41;5103064;28;20408;-78
2023/02/16 04:27:38;;;;;;;38.15;19.95;;;1.80;99.90;;;0.41;100.00;98293.75;5102114;28;20410;-79
2023/02/16 04:30:06;;;;;;;39.28;20.20;;;1.70;99.90;;;0.34;100.00;98298.81;5100999;28;20506;-78
2023/02/16 04:32:32;;;;;;;34.63;19.30;;;1.60;99.90;;;0.27;100.00;98300.44;5101998;28;20392;-78
2023/02/16 04:34:58;;;;;;;35.65;19.45;;;1.60;99.90;;;0.22;100.00;98308.75;5102435;28;20459;-78
2023/02/16 04:37:24;;;;;;;38.28;19.90;;;1.60;99.90;;;0.19;100.00;98303.88;5100668;28;20402;-77
2023/02/16 04:39:50;;;;;;;42.88;20.75;;;1.50;99.90;;;0.19;100.00;98305.66;5109757;28;20436;-78
2023/02/16 04:42:16;;;;;;;39.93;20.83;;;1.50;99.90;;;0.15;100.00;98301.75;5101608;28;20899;-78
2023/02/16 04:44:44;;;;;;;40.70;21.35;;;1.50;99.90;;;0.14;100.00;98307.94;5099743;28;20485;-78
2023/02/16 04:47:10;;;;;;;44.00;21.25;;;1.50;99.90;;;0.12;100.00;98304.69;5100835;28;20406;-78
2023/02/16 04:49:36;;;;;;;45.10;21.80;;;1.40;99.90;;;0.11;100.00;98303.03;5101687;28;20473;-78
2023/02/16 04:52:02;;;;;;;42.72;19.92;;;1.40;99.90;;;0.11;100.00;98297.84;5101211;28;20405;-78
2023/02/16 04:54:29;;;;;;;41.25;20.88;;;1.40;99.90;;;0.13;100.00;98295.91;5100474;28;20409;-78
2023/02/16 04:56:55;;;;;;;41.47;20.50;;;1.40;99.90;;;0.19;100.00;98293.47;5101807;28;20426;-78
2023/02/16 04:59:21;;;;;;;39.10;20.38;;;1.50;99.90;;;0.28;100.00;98296.88;5102053;28;20485;-78
2023/02/16 05:01:48;;;;;;;38.27;19.27;;;1.60;99.90;;;0.33;100.00;98298.00;5102012;28;20400;-78
2023/02/16 05:04:15;;;;;;;34.42;18.50;;;1.60;99.90;;;0.38;100.00;98298.31;5100772;28;20398;-77
2023/02/16 05:06:41;;;;;;;36.15;18.38;;;1.70;99.90;;;0.47;100.00;98299.13;5100585;28;20479;-78
2023/02/16 05:09:08;;;;;;;33.63;17.60;;;1.70;99.90;;;0.50;100.00;98291.00;5101910;28;20416;-78
2023/02/16 05:14:40;;;;;;;37.45;16.98;;;1.90;99.90;;;0.60;100.00;98296.81;5101459;28;20431;-77
2023/02/16 05:17:09;;;;;;;33.72;16.83;;;1.90;99.90;;;0.65;100.00;98296.34;5102141;28;20445;-79
2023/02/16 05:19:35;;;;;;;33.47;16.50;;;1.90;99.90;;;0.65;100.00;98294.53;5100242;28;20883;-80
2023/02/16 05:22:01;;;;;;;32.22;16.35;;;1.90;99.90;;;0.68;100.00;98293.38;5103161;22;20465;-79
2023/02/16 05:24:30;;;;;;;28.67;15.60;;;1.90;99.90;;;0.73;100.00;98301.53;5067931;28;20507;-79
2023/02/16 05:26:56;;;;;;;31.33;16.67;;;2.00;99.90;;;0.85;100.00;98299.38;5070258;28;20407;-78
2023/02/16 05:29:22;;;;;;;28.27;15.85;;;2.10;99.90;;;0.89;100.00;98301.50;5064769;28;20424;-79
2023/02/16 05:31:48;;;;;;;27.35;15.75;;;2.10;99.90;;;0.95;100.00;98300.00;5054193;28;20490;-77
2023/02/16 05:34:15;;;;;;;28.25;15.57;;;2.20;99.90;;;1.05;100.00;98305.84;5050374;28;20768;-76
2023/02/16 05:36:41;;;;;;;25.40;14.43;;;2.30;99.90;;;1.05;100.00;98306.63;5052847;28;20495;-77
2023/02/16 05:39:07;;;;;;;26.20;14.65;;;2.30;99.90;;;1.03;100.00;98305.19;5069807;28;20475;-78
2023/02/16 05:41:33;;;;;;;27.17;16.00;;;2.20;99.90;;;1.04;100.00;98307.66;5070458;28;20407;-78
2023/02/16 05:44:02;;;;;;;29.47;15.77;;;2.30;99.90;;;0.95;100.00;98316.47;5070797;28;20470;-78
2023/02/16 05:46:31;;;;;;;26.27;15.23;;;2.20;99.90;;;0.86;100.00;98317.47;5070787;28;20402;-78
2023/02/16 05:48:57;;;;;;;24.95;15.10;;;2.10;99.90;;;0.80;100.00;98315.53;5070682;28;20408;-78
2023/02/16 05:51:25;;;;;;;28.50;15.70;;;2.00;99.90;;;0.77;100.00;98323.66;5070353;28;20922;-78
2023/02/16 05:53:51;;;;;;;27.17;15.20;;;2.00;99.90;;;0.67;100.00;98328.25;5070569;28;20469;-78
2023/02/16 05:56:19;;;;;;;29.80;16.23;;;1.90;99.90;;;0.63;100.00;98317.34;5070658;28;20686;-79
2023/02/16 05:58:45;;;;;;;31.93;17.23;;;1.90;99.90;;;0.59;100.00;98321.28;5061511;28;20428;-79
2023/02/16 06:01:11;;;;;;;31.23;16.98;;;1.90;99.90;;;0.56;100.00;98326.78;5051595;28;20490;-79
2023/02/16 06:03:37;;;;;;;33.07;17.03;;;1.80;99.90;;;0.51;100.00;98329.09;5070055;28;20402;-79
2023/02/16 06:06:04;;;;;;;32.85;16.80;;;1.80;99.90;;;0.44;100.00;98332.50;5070486;28;20403;-79
2023/02/16 06:08:32;;;;;;;33.15;16.85;;;1.70;99.90;;;0.38;100.00;98337.38;5065090;28;21067;-79
2023/02/16 06:10:59;;;;;;;32.85;17.15;;;1.70;99.90;;;0.31;100.00;98336.41;5066051;28;20411;-79
2023/02/16 06:13:25;;;;;;;33.40;17.83;;;1.60;99.90;;;0.28;100.00;98344.56;5067041;28;20412;-78
2023/02/16 06:15:53;;;;;;;36.63;18.08;;;1.60;99.90;;;0.23;100.00;98344.22;5070049;28;20404;-81
2023/02/16 06:18:19;;;;;;;37.75;18.13;;;1.50;99.90;;;0.21;100.00;98348.78;5070629;28;20435;-80
2023/02/16 06:20:45;;;;;;;33.33;18.05;;;1.50;99.90;;;0.20;100.00;98351.53;5052230;28;20403;-85
2023/02/16 06:23:12;;;;;;;35.30;18.25;;;1.50;99.90;;;0.21;100.00;98355.78;5070141;28;20426;-85
2023/02/16 06:25:41;;;;;;;34.60;18.73;;;1.50;99.90;;;0.24;100.00;98358.03;5070327;28;20404;-80
2023/02/16 06:28:06;;;;;;;39.33;19.15;;;1.50;99.90;;;0.28;100.00;98354.97;5070313;28;20412;-80
2023/02/16 06:30:34;;;;;;;37.97;20.08;;;1.60;99.90;;;0.30;100.00;98354.81;5070365;28;20399;-80
2023/02/16 06:33:00;;;;;;;36.40;18.97;;;1.60;99.90;;;0.32;100.00;98352.84;5069889;28;20465;-80
2023/02/16 06:35:26;;;;;;;37.95;19.52;;;1.60;99.90;;;0.37;100.00;98355.78;5052156;28;20427;-80
2023/02/16 06:37:51;;;;;;;38.33;19.60;;;1.60;99.90;;;0.39;100.00;98356.41;5070289;28;20467;-80
2023/02/16 06:40:18;;;;;;;36.95;18.92;;;1.70;99.90;;;0.39;100.00;98352.03;5070254;28;20461;-81
2023/02/16 06:42:45;;;;;;;39.28;18.83;;;1.60;99.90;;;0.46;100.00;98356.59;5069925;28;20407;-81
2023/02/16 06:45:11;;;;;;;40.47;19.38;;;1.70;99.90;;;0.51;100.00;98352.53;5070545;28;20827;-84
2023/02/16 06:47:37;;;;;;;36.95;19.02;;;1.80;99.90;;;0.60;100.00;98350.75;5069997;28;20772;-80
2023/02/16 06:50:08;;;;;;;36.92;18.67;;;1.90;99.90;;;0.65;100.00;98348.44;5070202;28;20404;-78
2023/02/16 06:52:34;;;;;;;32.70;19.17;;;1.90;99.90;;;0.71;100.00;98353.81;5069688;28;20388;-75
2023/02/16 06:55:00;;;;;;;38.13;17.90;;;2.00;99.90;;;0.73;100.00;98357.06;5069929;28;20404;-77
2023/02/16 06:57:26;;;;;;;31.92;17.65;;;2.00;99.90;;;0.73;100.00;98353.66;5069865;28;20400;-78
2023/02/16 06:59:55;;;;;;;30.25;17.60;;;2.00;99.90;;;0.78;100.00;98357.38;5069783;28;20410;-79
2023/02/16 07:02:21;;;;;;;35.33;18.27;;;2.00;99.90;;;0.80;100.00;98361.63;5069762;28;20884;-80
2023/02/16 07:04:47;;;;;;;34.05;18.08;;;2.10;99.90;;;0.83;100.00;98369.91;5069871;28;20911;-80
2023/02/16 07:07:13;;;;;;;39.00;20.17;;;2.10;99.90;;;0.91;100.00;98367.28;5069878;28;20399;-79
2023/02/16 07:09:39;;;;;;;34.60;18.67;;;2.20;99.90;;;1.08;100.00;98365.47;5070168;28;20400;-78
2023/02/16 07:12:06;;;;;;;32.47;18.42;;;2.30;99.90;;;1.09;100.00;98365.31;5069450;28;20453;-79
2023/02/16 07:14:32;;;;;;;32.55;17.98;;;2.30;99.90;;;1.22;100.00;98370.00;5050268;28;20907;-79
2023/02/16 07:17:03;;;;;;;30.77;17.13;;;2.40;99.90;;;1.17;100.00;98356.66;5073446;28;20757;-79
2023/02/16 07:19:31;;;;;;;34.13;18.65;;;2.40;99.90;;;1.21;100.00;98367.53;5055369;28;20825;-78
2023/02/16 07:21:57;;;;;;;35.47;18.52;;;2.40;99.90;;;1.17;100.00;98367.91;5072827;28;20404;-79
2023/02/16 07:24:23;;;;;;;37.60;20.08;;;2.40;99.90;;;1.20;100.00;98371.16;5055539;28;20442;-79
2023/02/16 07:26:49;;;;;;;34.38;18.73;;;2.40;99.90;;;1.21;100.00;98372.75;5073273;28;20486;-79
2023/02/16 07:29:15;;;;;;;32.77;18.40;;;2.40;99.90;;;1.25;100.00;98368.84;5073156;28;20412;-79
2023/02/16 07:31:41;;;;;;;35.90;18.40;;;2.50;99.90;;;1.35;100.00;98378.13;5070097;28;20415;-78
2023/02/16 07:34:08;;;;;;;33.23;17.63;;;2.60;99.90;;;1.43;100.00;98372.03;5065172;28;20814;-79
2023/02/16 07:36:34;;;;;;;34.97;17.63;;;2.70;99.90;;;1.52;100.00;98382.28;5069131;28;20425;-78
2023/02/16 07:39:00;;;;;;;31.17;18.27;;;2.70;99.90;;;1.66;100.00;98372.91;5061259;28;20420;-79
2023/02/16 07:41:26;;;;;;;34.05;17.13;;;2.90;99.90;;;1.87;100.00;98377.56;5072494;28;20788;-79
2023/02/16 07:43:52;;;;;;;29.13;16.90;;;3.10;99.90;;;1.94;100.00;98374.09;5066576;28;20420;-79
2023/02/16 07:46:18;;;;;;;30.80;18.02;;;3.20;99.90;;;2.15;100.00;98381.31;5072957;28;20403;-79
2023/02/16 07:48:47;;;;;;;31.55;18.58;;;3.40;99.90;;;2.36;100.00;98378.06;5068385;28;20469;-79
2023/02/16 07:51:20;;;;;;;32.63;18.23;;;3.50;99.90;;;2.39;100.00;98379.53;5063631;28;20927;-79
2023/02/16 07:53:46;;;;;;;33.88;18.75;;;3.50;99.90;;;2.53;100.00;98373.53;5070102;28;20531;-79
2023/02/16 07:56:19;;;;;;;31.60;18.00;;;3.70;99.90;;;2.67;100.00;98384.03;5070097;28;20498;-79
2023/02/16 07:58:46;;;;;;;35.25;19.60;;;3.80;99.90;;;2.88;100.00;98385.97;5070362;28;20465;-79
2023/02/16 08:01:16;;;;;;;32.55;18.08;;;4.00;99.90;;;2.99;100.00;98388.16;5071194;28;20403;-79
2023/02/16 08:03:42;;;;;;;29.10;17.35;;;4.10;99.90;;;3.06;100.00;98386.44;5066713;28;20814;-77
2023/02/16 08:06:08;;;;;;;30.83;17.27;;;4.20;99.90;;;3.20;100.00;98387.44;5072408;28;20409;-79
2023/02/16 08:08:36;;;;;;;31.63;17.93;;;4.40;99.90;;;3.48;100.00;98382.41;5072488;28;20541;-78
2023/02/16 08:11:09;;;;;;;32.20;16.90;;;4.60;99.90;;;3.52;100.00;98390.72;5072349;28;20396;-78
2023/02/16 08:13:35;;;;;;;26.73;16.38;;;4.70;99.90;;;3.58;100.00;98390.78;5072251;28;20428;-78
2023/02/16 08:16:01;;;;;;;32.40;16.43;;;4.70;99.90;;;3.78;100.00;98393.66;5072639;28;20398;-78
2023/02/16 08:18:28;;;;;;;28.02;16.40;;;4.90;99.90;;;3.91;100.00;98399.03;5072396;28;20487;-78
2023/02/16 08:20:56;;;;;;;28.92;16.40;;;5.00;99.90;;;4.22;100.00;98389.09;5072297;28;20403;-79
2023/02/16 08:23:22;;;;;;;30.13;16.75;;;5.30;99.90;;;4.38;100.00;98395.13;5067330;28;20404;-78
2023/02/16 08:25:49;;;;;;;28.17;15.95;;;5.50;99.90;;;4.43;100.00;98396.19;5071906;28;20773;-78
2023/02/16 08:28:15;;;;;;;29.27;17.17;;;5.50;99.90;;;4.74;100.00;98387.97;5072006;28;20418;-78
2023/02/16 08:30:41;;;;;;;31.98;15.88;;;5.80;99.90;;;4.75;100.00;98401.91;5072251;28;20408;-78
2023/02/16 08:33:07;;;;;;;28.92;16.00;;;5.80;99.90;;;4.77;100.00;98398.09;5069215;28;20958;-77
2023/02/16 08:35:37;;;;;;;29.90;16.02;;;5.90;99.90;;;4.88;100.00;98397.59;5071411;28;20400;-78
2023/02/16 08:38:05;;;;;;;26.05;14.85;;;6.00;99.90;;;4.90;100.00;98392.97;5070037;28;20442;-80
2023/02/16 08:40:31;;;;;;;30.05;14.73;;;6.00;99.90;;;4.96;100.00;98394.03;5052174;28;20502;-82
2023/02/16 08:42:59;;;;;;;27.40;15.00;;;6.10;99.90;;;5.11;100.00;98393.94;5069716;28;20408;-81
2023/02/16 08:45:24;;;;;;;27.70;15.18;;;6.10;99.90;;;5.25;100.00;98385.16;5053925;28;20897;-81
2023/02/16 08:47:52;;;;;;;25.73;14.20;;;6.30;99.90;;;5.23;100.00;98387.16;5072151;28;20476;-81
2023/02/16 08:50:18;;;;;;;29.83;15.55;;;6.40;99.90;;;5.39;100.00;98387.66;5072627;28;20400;-80
2023/02/16 08:52:44;;;;;;;25.85;15.07;;;6.50;99.90;;;5.74;100.00;98396.31;5071418;28;20437;-80
2023/02/16 08:55:10;;;;;;;28.45;15.23;;;6.70;99.90;;;5.73;100.00;98389.44;5071822;28;20491;-80
2023/02/16 08:57:36;;;;;;;26.92;16.17;;;6.80;99.90;;;5.93;100.00;98386.94;5071679;28;20416;-80
2023/02/16 09:02:50;;;;;;;28.95;14.63;;;6.90;99.90;;;5.78;100.00;98396.75;5071220;28;20910;-80
2023/02/16 09:05:16;;;;;;;28.73;15.97;;;6.80;99.90;;;5.87;100.00;98392.91;5071669;28;20442;-80
2023/02/16 09:07:42;;;;;;;32.60;15.35;;;6.90;99.90;;;5.80;100.00;98395.53;5071458;28;20970;-80
2023/02/16 09:10:08;;;;;;;27.08;14.63;;;6.90;99.90;;;5.96;100.00;98388.34;5071833;28;20490;-81
2023/02/16 09:12:35;;;;;;;25.67;13.55;;;7.00;99.90;;;5.95;100.00;98381.47;5071311;28;20480;-80
2023/02/16 09:15:03;;;;;;;23.98;13.35;;;7.10;99.90;;;6.13;100.00;98389.63;5071695;28;20924;-80
2023/02/16 09:17:29;;;;;;;23.63;13.88;;;7.10;99.90;;;6.50;100.00;98391.72;5071420;28;20406;-80
2023/02/16 09:19:55;;;;;;;23.48;12.98;;;7.40;99.90;;;6.44;100.00;98387.28;5071403;28;20431;-81
2023/02/16 09:22:21;;;;;;;24.73;13.10;;;7.50;99.90;;;6.44;100.00;98389.91;5070989;28;20879;-81
2023/02/16 09:24:47;;;;;;;23.23;13.52;;;7.40;99.90;;;6.60;100.00;98386.91;5071224;28;20438;-80
2023/02/16 09:27:13;;;;;;;21.48;12.80;;;7.60;99.90;;;6.56;100.00;98385.66;5071219;28;20457;-79
2023/02/16 09:29:39;;;;;;;22.15;11.65;;;7.50;99.90;;;6.60;100.00;98386.91;5071227;28;20438;-80
2023/02/16 09:32:07;;;;;;;22.10;12.10;;;7.60;99.90;;;6.83;100.00;98385.69;5070742;28;20926;-80
2023/02/16 09:34:33;;;;;;;20.77;12.00;;;7.80;99.90;;;6.90;100.00;98387.31;5067923;28;20491;-80
2023/02/16 09:36:59;;;;;;;22.73;12.50;;;7.80;99.90;;;6.86;100.00;98386.09;5070166;28;20408;-79
2023/02/16 09:39:25;;;;;;;18.55;11.73;;;7.80;99.90;;;7.00;100.00;98379.78;5050896;28;20890;-79
2023/02/16 09:42:05;;;;;;;24.57;11.87;;;8.00;99.90;;;6.91;100.00;98388.13;5050446;28;20484;-79
2023/02/16 09:44:48;;;;;;;19.40;11.47;;;7.90;99.90;;;7.29;100.00;98388.28;5050475;28;20420;-80
2023/02/16 09:47:23;;;;;;;21.93;11.50;;;8.10;99.90;;;7.23;100.00;98389.09;5060468;28;20423;-80
2023/02/16 09:49:51;;;;;;;23.77;11.90;;;8.20;99.90;;;7.56;100.00;98374.03;5070439;28;20399;-80
2023/02/16 09:52:23;;;;;;;22.05;11.52;;;8.40;99.90;;;7.50;100.00;98376.69;5069946;28;20954;-80
2023/02/16 09:54:52;;;;;;;18.65;10.90;;;8.40;99.90;;;7.76;100.00;98381.88;5070607;28;20418;-80
2023/02/16 09:57:41;;;;;;;16.58;10.02;;;8.60;99.90;;;7.97;100.00;98371.03;5070894;28;20494;-80
2023/02/16 10:00:23;;;;;;;17.17;10.45;;;8.80;99.90;;;8.48;100.00;98370.19;5070739;28;20399;-81
2023/02/16 10:02:58;;;;;;;20.80;10.23;;;9.40;99.90;;;9.30;100.00;98374.38;5070230;28;20911;-80
2023/02/16 10:05:30;;;;;;;17.38;9.90;;;10.20;99.90;;;9.89;100.00;98370.25;5070535;28;20888;-80
2023/02/16 10:08:02;;;;;;;14.60;9.25;;;10.80;99.90;;;10.23;100.00;98371.47;5070975;28;20411;-81
2023/02/16 10:10:37;;;;;;;18.40;10.02;;;11.40;99.90;;;10.46;100.00;98375.00;5068834;28;20949;-80
2023/02/16 10:13:12;;;;;;;20.10;9.38;;;11.60;99.90;;;10.99;100.00;98368.09;5069808;28;20845;-80
2023/02/16 10:15:42;;;;;;;14.43;8.15;;;12.10;99.90;;;11.10;100.00;98372.59;5064861;28;20884;-80
2023/02/16 10:18:21;;;;;;;17.45;9.23;;;12.20;99.90;;;11.46;100.00;98364.41;5068533;28;20391;-80
2023/02/16 10:20:52;;;;;;;12.75;7.97;;;12.40;99.90;;;11.86;100.00;98376.94;5070076;28;20426;-80
2023/02/16 10:23:43;;;;;;;15.55;8.20;;;12.60;99.90;;;12.30;100.00;98372.75;5069899;28;20403;-80
2023/02/16 10:26:18;;;;;;;16.27;8.55;;;12.90;98.60;;;12.62;90.02;98367.75;5070330;28;20483;-80
2023/02/16 10:28:48;;;;;;;15.30;8.15;;;13.30;91.30;;;12.98;73.60;98367.28;5070346;28;20729;-81
2023/02/16 10:31:27;;;;;;;13.98;7.55;;;13.80;77.60;;;13.53;86.77;98363.84;5069978;28;20452;-81
2023/02/16 10:34:08;;;;;;;15.93;7.28;;;14.30;90.00;;;14.03;86.14;98362.84;5070284;28;21101;-81
2023/02/16 10:37:00;;;;;;;12.90;7.15;;;14.90;88.60;;;14.97;82.46;98364.06;5070192;28;20399;-80
2023/02/16 10:39:37;;;;;;;13.10;6.97;;;15.80;86.10;;;15.73;66.56;98353.88;5070466;28;20396;-80
2023/02/16 10:42:15;;;;;;;11.52;6.57;;;16.80;71.10;;;16.28;75.84;98347.13;5070038;28;20781;-81
2023/02/16 10:44:47;;;;;;;10.00;6.13;;;17.30;79.50;;;16.83;68.59;98351.78;5070186;28;20490;-81
2023/02/16 10:47:26;;;;;;;9.32;5.90;;;17.80;73.70;;;17.39;64.07;98354.38;5070227;28;20396;-80
2023/02/16 10:49:54;;;;;;;13.05;6.55;;;18.50;71.70;;;17.55;72.97;98341.75;5072049;28;20506;-81
2023/02/16 10:52:22;;;;;;;10.68;6.70;;;18.70;76.10;;;17.66;58.29;98348.72;5073990;28;20403;-80
2023/02/16 10:54:48;;;;;;;14.13;5.93;;;18.80;64.10;;;17.97;56.52;98335.97;5074036;28;20931;-81
2023/02/16 10:57:24;;;;;;;11.10;6.03;;;18.70;61.10;;;18.28;62.66;98340.09;5073973;28;20407;-81
2023/02/16 10:59:51;;;;;;;11.40;5.95;;;19.10;66.60;;;18.36;56.00;98341.41;5074051;28;20392;-80
2023/02/16 11:02:22;;;;;;;9.45;5.10;;;19.30;61.90;;;18.69;70.36;98346.03;5073658;28;20395;-81
2023/02/16 11:04:51;;;;;;;8.32;4.93;;;19.60;74.20;;;18.94;72.96;98337.78;5073947;28;20418;-80
2023/02/16 11:07:21;;;;;;;8.88;5.25;;;20.00;75.90;;;19.07;75.82;98335.53;5073766;28;20424;-80